createdAt,value
2023-03-19T00:00:27.974Z,6.03
2023-03-19T00:02:54.836Z,7.25
2023-03-19T00:05:22.309Z,7.90
2023-03-19T00:07:48.769Z,8.02
2023-03-19T00:10:15.303Z,8.73
2023-03-19T00:12:41.961Z,8.25
2023-03-19T00:15:15.822Z,8.65
2023-03-19T00:17:43.062Z,8.73
2023-03-19T00:20:11.787Z,7.93
2023-03-19T00:22:39.993Z,8.13
2023-03-19T00:25:08.345Z,8.27
2023-03-19T00:27:35.349Z,8.57
2023-03-19T00:30:02.557Z,7.65
2023-03-19T00:32:30.037Z,7.95
2023-03-19T00:34:56.674Z,8.00
2023-03-19T00:37:23.486Z,7.30
2023-03-19T00:39:50.256Z,6.82
2023-03-19T00:42:16.722Z,6.05
2023-03-19T00:44:43.089Z,6.05
2023-03-19T00:47:09.917Z,6.75
2023-03-19T00:49:38.306Z,8.20
2023-03-19T00:52:05.062Z,8.73
2023-03-19T00:54:32.480Z,7.28
2023-03-19T00:56:59.077Z,7.72
2023-03-19T00:59:25.744Z,7.28
2023-03-19T01:01:52.563Z,6.65
2023-03-19T01:04:19.173Z,6.82
2023-03-19T01:06:46.203Z,5.50
2023-03-19T01:09:12.959Z,5.78
2023-03-19T01:11:39.468Z,5.70
2023-03-19T01:14:10.858Z,5.55
2023-03-19T01:16:37.446Z,5.22
2023-03-19T01:19:04.349Z,5.50
2023-03-19T01:21:31.233Z,6.20
2023-03-19T01:23:58.659Z,7.78
2023-03-19T01:26:25.451Z,7.20
2023-03-19T01:28:52.491Z,7.57
2023-03-19T01:31:19.459Z,7.90
2023-03-19T01:33:46.463Z,8.40
2023-03-19T01:36:13.244Z,6.75
2023-03-19T01:38:40.488Z,6.63
2023-03-19T01:41:07.767Z,5.32
2023-03-19T01:43:34.184Z,6.85
2023-03-19T01:46:08.260Z,6.88
2023-03-19T01:48:39.906Z,7.30
2023-03-19T01:51:11.089Z,7.40
2023-03-19T01:53:43.751Z,6.90
2023-03-19T01:56:19.416Z,7.03
2023-03-19T01:58:48.635Z,7.65
2023-03-19T02:01:15.590Z,7.50
2023-03-19T02:03:42.430Z,7.55
2023-03-19T02:06:12.297Z,7.13
2023-03-19T02:08:40.503Z,8.25
2023-03-19T02:11:08.019Z,7.78
2023-03-19T02:13:36.586Z,8.02
2023-03-19T02:16:03.284Z,7.85
2023-03-19T02:18:30.969Z,7.82
2023-03-19T02:21:06.920Z,8.10
2023-03-19T02:23:51.633Z,7.60
2023-03-19T02:26:23.689Z,8.23
2023-03-19T02:28:52.030Z,8.13
2023-03-19T02:31:19.305Z,7.40
2023-03-19T02:34:00.631Z,7.70
2023-03-19T02:36:34.000Z,6.80
2023-03-19T02:39:03.901Z,5.97
2023-03-19T02:41:33.311Z,6.15
2023-03-19T02:44:03.777Z,6.07
2023-03-19T02:46:30.231Z,6.07
2023-03-19T02:48:56.766Z,5.40
2023-03-19T02:51:23.639Z,5.50
2023-03-19T02:53:51.219Z,5.18
2023-03-19T02:56:17.912Z,5.65
2023-03-19T02:58:44.326Z,5.43
2023-03-19T03:01:10.767Z,5.20
2023-03-19T03:03:37.440Z,5.18
2023-03-19T03:06:03.999Z,4.80
2023-03-19T03:08:32.130Z,4.75
2023-03-19T03:10:58.582Z,5.07
2023-03-19T03:13:25.137Z,4.55
2023-03-19T03:15:51.691Z,4.43
2023-03-19T03:18:19.342Z,4.47
2023-03-19T03:20:45.802Z,5.25
2023-03-19T03:23:12.870Z,4.70
2023-03-19T03:25:39.236Z,4.07
2023-03-19T03:28:05.737Z,4.78
2023-03-19T03:30:32.860Z,4.30
2023-03-19T03:33:00.648Z,4.57
2023-03-19T03:35:27.428Z,4.47
2023-03-19T03:37:53.907Z,4.40
2023-03-19T03:40:21.658Z,4.63
2023-03-19T03:42:48.075Z,4.38
2023-03-19T03:45:15.347Z,4.75
2023-03-19T03:47:42.974Z,4.38
2023-03-19T03:50:11.077Z,4.43
2023-03-19T03:52:39.119Z,4.55
2023-03-19T03:55:06.204Z,4.85
2023-03-19T03:57:32.689Z,5.13
2023-03-19T03:59:59.202Z,5.07
2023-03-19T04:02:26.264Z,4.65
2023-03-19T04:04:53.451Z,5.10
2023-03-19T04:07:20.721Z,4.95
2023-03-19T04:09:47.324Z,4.95
2023-03-19T04:12:14.342Z,4.60
2023-03-19T04:14:46.859Z,4.32
2023-03-19T04:17:13.246Z,4.45
2023-03-19T04:19:40.325Z,4.60
2023-03-19T04:22:08.623Z,4.22
2023-03-19T04:24:35.172Z,4.22
2023-03-19T04:27:01.929Z,5.20
2023-03-19T04:29:28.402Z,6.95
2023-03-19T04:31:54.834Z,7.18
2023-03-19T04:34:21.271Z,6.95
2023-03-19T04:36:48.341Z,7.30
2023-03-19T04:39:14.908Z,7.72
2023-03-19T04:41:41.317Z,6.93
2023-03-19T04:44:08.025Z,7.25
2023-03-19T04:46:34.532Z,4.45
2023-03-19T04:49:01.447Z,4.15
2023-03-19T04:51:28.256Z,4.50
2023-03-19T04:53:55.060Z,4.50
2023-03-19T04:56:21.927Z,4.15
2023-03-19T04:58:48.407Z,5.22
2023-03-19T05:01:15.020Z,5.00
2023-03-19T05:03:41.485Z,4.75
2023-03-19T05:06:08.855Z,4.95
2023-03-19T05:08:35.885Z,5.53
2023-03-19T05:11:02.716Z,5.32
2023-03-19T05:13:29.345Z,5.35
2023-03-19T05:15:56.904Z,5.70
2023-03-19T05:18:23.819Z,5.80
2023-03-19T05:20:51.799Z,7.45
2023-03-19T05:23:18.428Z,8.02
2023-03-19T05:25:44.894Z,7.72
2023-03-19T05:28:12.619Z,5.75
2023-03-19T05:30:39.670Z,5.20
2023-03-19T05:33:06.321Z,5.38
2023-03-19T05:35:37.582Z,5.13
2023-03-19T05:38:04.114Z,6.47
2023-03-19T05:40:31.324Z,5.40
2023-03-19T05:42:57.893Z,4.93
2023-03-19T05:45:24.432Z,5.38
2023-03-19T05:47:50.825Z,5.32
2023-03-19T05:50:18.894Z,4.57
2023-03-19T05:52:45.805Z,5.30
2023-03-19T05:55:12.491Z,4.43
2023-03-19T05:57:39.153Z,4.40
2023-03-19T06:00:07.770Z,4.80
2023-03-19T06:02:35.969Z,4.70
2023-03-19T06:05:02.845Z,4.65
2023-03-19T06:07:29.528Z,5.20
2023-03-19T06:09:56.019Z,6.88
2023-03-19T06:12:22.577Z,6.95
2023-03-19T06:14:49.701Z,8.40
2023-03-19T06:17:16.182Z,8.13
2023-03-19T06:19:42.746Z,6.90
2023-03-19T06:22:09.442Z,6.68
2023-03-19T06:24:36.946Z,6.25
2023-03-19T06:27:10.674Z,6.40
2023-03-19T06:32:07.619Z,5.95
2023-03-19T06:34:34.044Z,5.15
2023-03-19T06:37:00.622Z,4.60
2023-03-19T06:39:27.321Z,5.20
2023-03-19T06:41:54.003Z,5.20
2023-03-19T06:44:20.451Z,4.57
2023-03-19T06:46:47.002Z,4.53
2023-03-19T06:49:13.585Z,4.80
2023-03-19T06:51:40.341Z,5.05
2023-03-19T06:54:07.490Z,5.47
2023-03-19T06:56:36.231Z,7.82
2023-03-19T06:59:02.722Z,8.23
2023-03-19T07:01:32.094Z,9.20
2023-03-19T07:03:58.675Z,8.75
2023-03-19T07:06:25.248Z,8.80
2023-03-19T07:08:51.837Z,8.75
2023-03-19T07:11:18.375Z,8.90
2023-03-19T07:13:44.764Z,8.73
2023-03-19T07:16:11.265Z,8.65
2023-03-19T07:18:37.887Z,8.90
2023-03-19T07:21:04.801Z,9.48
2023-03-19T07:23:31.580Z,8.05
2023-03-19T07:25:58.552Z,9.30
2023-03-19T07:28:25.172Z,9.00
2023-03-19T07:30:53.274Z,9.63
2023-03-19T07:33:21.997Z,9.85
2023-03-19T07:35:49.007Z,9.65
2023-03-19T07:38:17.198Z,10.20
2023-03-19T07:40:55.168Z,9.70
2023-03-19T07:45:54.177Z,9.80
2023-03-19T07:48:26.604Z,9.45
2023-03-19T07:50:54.312Z,10.77
2023-03-19T07:53:21.409Z,9.35
2023-03-19T07:55:48.279Z,10.43
2023-03-19T07:58:14.967Z,9.65
2023-03-19T08:00:41.542Z,9.75
2023-03-19T08:03:07.954Z,9.50
2023-03-19T08:05:34.601Z,9.40
2023-03-19T08:08:01.275Z,8.63
2023-03-19T08:10:27.784Z,9.40
2023-03-19T08:12:54.202Z,9.15
2023-03-19T08:15:20.725Z,8.85
2023-03-19T08:17:47.135Z,8.25
2023-03-19T08:20:18.697Z,8.57
2023-03-19T08:22:50.315Z,7.43
2023-03-19T08:25:16.798Z,8.65
2023-03-19T08:27:43.435Z,8.70
2023-03-19T08:30:11.052Z,8.82
2023-03-19T08:32:38.041Z,7.70
2023-03-19T08:35:06.158Z,8.77
2023-03-19T08:37:32.893Z,8.35
2023-03-19T08:40:00.171Z,9.15
2023-03-19T08:42:34.702Z,8.43
2023-03-19T08:45:01.127Z,8.95
2023-03-19T08:47:32.125Z,8.48
2023-03-19T08:49:58.569Z,7.82
2023-03-19T08:52:25.506Z,5.97
2023-03-19T08:54:51.882Z,4.97
2023-03-19T08:57:18.432Z,5.40
2023-03-19T08:59:44.967Z,3.67
2023-03-19T09:02:12.505Z,3.72
2023-03-19T09:04:42.945Z,4.05
2023-03-19T09:07:15.663Z,3.70
2023-03-19T09:09:44.047Z,3.97
2023-03-19T09:12:14.106Z,4.20
2023-03-19T09:14:41.216Z,4.38
2023-03-19T09:17:07.974Z,3.70
2023-03-19T09:19:35.201Z,3.88
2023-03-19T09:22:03.947Z,4.80
2023-03-19T09:24:30.326Z,3.70
2023-03-19T09:26:56.744Z,3.38
2023-03-19T09:29:23.293Z,3.72
2023-03-19T09:31:49.738Z,4.20
2023-03-19T09:34:19.447Z,3.90
2023-03-19T09:36:47.377Z,4.53
2023-03-19T09:39:16.549Z,3.88
2023-03-19T09:42:10.765Z,3.70
2023-03-19T09:47:26.821Z,4.70
2023-03-19T09:49:59.308Z,4.38
2023-03-19T09:52:41.302Z,4.63
2023-03-19T09:55:40.658Z,4.40
2023-03-19T09:58:22.173Z,3.53
2023-03-19T10:00:53.693Z,4.25
2023-03-19T10:03:45.558Z,4.18
2023-03-19T10:06:18.142Z,3.67
2023-03-19T10:08:47.856Z,3.75
2023-03-19T10:11:27.851Z,3.50
2023-03-19T10:14:14.778Z,3.47
2023-03-19T10:16:46.718Z,3.30
2023-03-19T10:19:18.590Z,3.03
2023-03-19T10:22:06.059Z,3.33
2023-03-19T10:24:37.171Z,3.40
2023-03-19T10:27:16.989Z,3.58
2023-03-19T10:29:45.043Z,3.28
2023-03-19T10:32:31.751Z,2.70
2023-03-19T10:35:01.349Z,2.60
2023-03-19T10:37:29.866Z,3.22
2023-03-19T10:39:59.536Z,3.10
2023-03-19T10:43:03.199Z,2.65
2023-03-19T10:45:39.164Z,2.88
2023-03-19T10:48:11.879Z,2.40
2023-03-19T10:50:45.612Z,2.70
2023-03-19T10:53:14.760Z,2.63
2023-03-19T10:55:58.184Z,2.53
2023-03-19T10:58:29.383Z,3.05
2023-03-19T11:01:11.104Z,3.30
2023-03-19T11:03:40.872Z,3.00
2023-03-19T11:06:18.347Z,2.55
2023-03-19T11:09:10.399Z,2.90
2023-03-19T11:11:44.065Z,3.38
2023-03-19T11:14:15.978Z,3.00
2023-03-19T11:17:04.682Z,3.10
2023-03-19T11:19:42.876Z,3.10
2023-03-19T11:22:12.453Z,3.67
2023-03-19T11:24:41.064Z,2.80
2023-03-19T11:27:09.923Z,3.47
2023-03-19T11:29:44.764Z,3.35
2023-03-19T11:32:30.715Z,3.20
2023-03-19T11:35:11.944Z,3.15
2023-03-19T11:37:48.035Z,2.70
2023-03-19T11:40:25.174Z,3.20
2023-03-19T11:43:21.298Z,3.58
2023-03-19T11:46:11.470Z,2.78
2023-03-19T11:48:58.794Z,2.75
2023-03-19T11:51:36.407Z,2.80
2023-03-19T11:54:21.470Z,3.08
2023-03-19T11:57:00.898Z,3.10
2023-03-19T11:59:44.047Z,2.85
2023-03-19T12:02:16.749Z,3.55
2023-03-19T12:05:03.816Z,3.67
2023-03-19T12:07:39.676Z,3.60
2023-03-19T12:10:28.062Z,3.80
2023-03-19T12:13:30.502Z,2.83
2023-03-19T12:16:28.906Z,4.05
2023-03-19T12:19:29.552Z,6.63
2023-03-19T12:22:19.472Z,3.78
2023-03-19T12:25:00.913Z,2.85
2023-03-19T12:27:53.382Z,2.72
2023-03-19T12:30:57.467Z,3.05
2023-03-19T12:33:30.613Z,3.40
2023-03-19T12:36:01.751Z,3.10
2023-03-19T12:38:45.784Z,3.03
2023-03-19T12:41:24.323Z,2.80
2023-03-19T12:44:12.408Z,3.72
2023-03-19T12:46:46.629Z,3.13
2023-03-19T12:49:28.476Z,3.17
2023-03-19T12:52:15.011Z,2.75
2023-03-19T12:54:46.740Z,2.85
2023-03-19T12:57:16.112Z,2.65
2023-03-19T12:59:51.727Z,2.70
2023-03-19T13:02:48.073Z,3.00
2023-03-19T13:05:14.714Z,2.80
2023-03-19T13:08:01.404Z,2.72
2023-03-19T13:10:32.552Z,2.83
2023-03-19T13:13:02.268Z,2.75
2023-03-19T13:15:36.503Z,2.17
2023-03-19T13:18:15.997Z,2.25
2023-03-19T13:21:01.300Z,2.55
2023-03-19T13:23:32.459Z,2.03
2023-03-19T13:26:00.639Z,2.20
2023-03-19T13:28:30.747Z,2.33
2023-03-19T13:31:07.171Z,2.40
2023-03-19T13:33:37.562Z,2.08
2023-03-19T13:36:14.582Z,2.45
2023-03-19T13:38:49.093Z,2.35
2023-03-19T13:41:44.929Z,2.50
2023-03-19T13:44:30.490Z,2.47
2023-03-19T13:47:00.740Z,2.60
2023-03-19T13:49:33.485Z,2.78
2023-03-19T13:52:04.805Z,2.33
2023-03-19T13:54:45.954Z,2.83
2023-03-19T13:57:15.899Z,2.38
2023-03-19T13:59:46.732Z,2.80
2023-03-19T14:02:22.398Z,2.80
2023-03-19T14:05:04.521Z,2.70
2023-03-19T14:07:40.464Z,2.00
2023-03-19T14:10:29.876Z,2.50
2023-03-19T14:13:14.318Z,2.10
2023-03-19T14:15:48.103Z,2.05
2023-03-19T14:18:20.862Z,2.20
2023-03-19T14:20:56.823Z,2.92
2023-03-19T14:23:40.574Z,2.88
2023-03-19T14:26:16.375Z,12.68
2023-03-19T14:28:51.776Z,3.10
2023-03-19T14:31:33.628Z,3.45
2023-03-19T14:34:07.934Z,3.45
2023-03-19T14:36:38.325Z,3.08
2023-03-19T14:39:24.997Z,2.58
2023-03-19T14:42:06.334Z,2.10
2023-03-19T14:44:35.662Z,1.98
2023-03-19T14:47:39.784Z,2.15
2023-03-19T14:50:27.471Z,1.92
2023-03-19T14:53:14.518Z,2.47
2023-03-19T14:55:42.218Z,2.33
2023-03-19T14:58:12.856Z,3.13
2023-03-19T15:00:46.917Z,3.53
2023-03-19T15:03:21.983Z,5.25
2023-03-19T15:05:51.117Z,3.58
2023-03-19T15:08:26.527Z,3.75
2023-03-19T15:11:14.452Z,2.53
2023-03-19T15:13:51.046Z,2.28
2023-03-19T15:16:40.061Z,2.65
2023-03-19T15:19:09.927Z,2.33
2023-03-19T15:21:38.031Z,2.17
2023-03-19T15:24:07.071Z,2.00
2023-03-19T15:26:37.647Z,2.08
2023-03-19T15:29:04.659Z,1.98
2023-03-19T15:31:51.725Z,1.38
2023-03-19T15:34:35.451Z,2.28
2023-03-19T15:37:13.776Z,1.95
2023-03-19T15:39:45.507Z,1.60
2023-03-19T15:42:14.289Z,1.58
2023-03-19T15:44:46.882Z,1.52
2023-03-19T15:47:24.770Z,1.77
2023-03-19T15:50:07.567Z,1.40
2023-03-19T15:52:38.716Z,2.00
2023-03-19T15:55:06.819Z,1.77
2023-03-19T15:57:36.531Z,2.03
2023-03-19T16:00:06.300Z,2.05
2023-03-19T16:02:35.040Z,1.90
2023-03-19T16:05:20.889Z,1.83
2023-03-19T16:07:55.294Z,2.17
2023-03-19T16:10:27.944Z,2.05
2023-03-19T16:12:55.946Z,2.08
2023-03-19T16:15:30.318Z,2.28
2023-03-19T16:18:22.462Z,2.58
2023-03-19T16:21:08.646Z,2.08
2023-03-19T16:23:45.840Z,2.60
2023-03-19T16:26:22.496Z,2.20
2023-03-19T16:28:59.299Z,1.60
2023-03-19T16:31:30.285Z,2.47
2023-03-19T16:33:57.100Z,1.92
2023-03-19T16:36:27.778Z,1.90
2023-03-19T16:38:58.225Z,1.88
2023-03-19T16:41:26.622Z,2.00
2023-03-19T16:43:54.469Z,1.95
2023-03-19T16:46:21.379Z,1.65
2023-03-19T16:48:47.918Z,1.80
2023-03-19T16:51:18.395Z,1.80
2023-03-19T16:53:46.259Z,1.80
2023-03-19T16:56:20.207Z,1.67
2023-03-19T16:58:48.223Z,1.85
2023-03-19T17:01:18.081Z,2.35
2023-03-19T17:03:45.766Z,1.75
2023-03-19T17:06:14.113Z,2.88
2023-03-19T17:08:41.782Z,5.53
2023-03-19T17:11:28.343Z,5.72
2023-03-19T17:13:57.633Z,3.75
2023-03-19T17:16:24.483Z,2.97
2023-03-19T17:18:51.157Z,3.20
2023-03-19T17:21:33.293Z,2.90
2023-03-19T17:24:15.311Z,3.53
2023-03-19T17:26:41.820Z,4.07
2023-03-19T17:29:08.298Z,3.80
2023-03-19T17:31:35.445Z,3.97
2023-03-19T17:34:10.465Z,3.85
2023-03-19T17:36:37.530Z,4.32
2023-03-19T17:39:07.053Z,4.15
2023-03-19T17:41:35.424Z,3.75
2023-03-19T17:44:06.615Z,3.75
2023-03-19T17:47:00.028Z,4.00
2023-03-19T17:49:30.049Z,3.90
2023-03-19T17:51:57.177Z,3.35
2023-03-19T17:54:25.897Z,3.83
2023-03-19T17:56:53.121Z,3.75
2023-03-19T17:59:19.703Z,3.50
2023-03-19T18:01:48.780Z,3.65
2023-03-19T18:04:20.704Z,4.72
2023-03-19T18:06:54.339Z,4.90
2023-03-19T18:09:28.321Z,5.32
2023-03-19T18:11:55.568Z,4.70
2023-03-19T18:14:22.031Z,6.55
2023-03-19T18:16:48.725Z,6.25
2023-03-19T18:19:24.993Z,8.07
2023-03-19T18:21:51.713Z,7.05
2023-03-19T18:24:18.158Z,7.55
2023-03-19T18:26:44.637Z,9.68
2023-03-19T18:29:11.405Z,7.88
2023-03-19T18:31:38.455Z,6.90
2023-03-19T18:34:08.057Z,7.07
2023-03-19T18:36:36.353Z,6.43
2023-03-19T18:39:03.503Z,6.93
2023-03-19T18:41:31.292Z,6.50
2023-03-19T18:43:57.932Z,5.60
2023-03-19T18:46:29.916Z,4.70
2023-03-19T18:49:00.150Z,4.07
2023-03-19T18:51:27.631Z,4.18
2023-03-19T18:53:55.264Z,5.53
2023-03-19T18:56:28.162Z,6.60
2023-03-19T18:58:56.322Z,7.10
2023-03-19T19:01:23.108Z,4.82
2023-03-19T19:03:50.150Z,5.13
2023-03-19T19:06:40.086Z,5.93
2023-03-19T19:09:12.759Z,5.88
2023-03-19T19:11:42.166Z,5.78
2023-03-19T19:14:21.952Z,5.93
2023-03-19T19:16:49.130Z,6.05
2023-03-19T19:19:18.678Z,5.50
2023-03-19T19:21:45.512Z,6.13
2023-03-19T19:24:14.868Z,6.07
2023-03-19T19:26:44.258Z,6.85
2023-03-19T19:29:17.526Z,5.88
2023-03-19T19:31:44.114Z,4.78
2023-03-19T19:34:15.711Z,4.72
2023-03-19T19:36:42.912Z,4.78
2023-03-19T19:39:10.560Z,4.28
2023-03-19T19:41:38.810Z,4.28
2023-03-19T19:44:05.935Z,4.72
2023-03-19T19:46:32.543Z,3.70
2023-03-19T19:48:59.402Z,4.63
2023-03-19T19:51:28.249Z,4.18
2023-03-19T19:53:55.213Z,4.60
2023-03-19T19:56:25.278Z,3.85
2023-03-19T19:58:54.047Z,4.03
2023-03-19T20:01:23.441Z,3.88
2023-03-19T20:03:50.597Z,3.90
2023-03-19T20:06:17.225Z,5.53
2023-03-19T20:08:44.415Z,4.63
2023-03-19T20:11:23.364Z,4.65
2023-03-19T20:13:55.560Z,4.13
2023-03-19T20:16:24.755Z,4.88
2023-03-19T20:18:53.729Z,5.00
2023-03-19T20:21:20.663Z,4.63
2023-03-19T20:23:48.266Z,4.32
2023-03-19T20:26:19.262Z,5.32
2023-03-19T20:28:46.719Z,5.28
2023-03-19T20:31:23.993Z,5.03
2023-03-19T20:33:50.412Z,5.35
2023-03-19T20:36:17.357Z,5.93
2023-03-19T20:38:44.037Z,5.80
2023-03-19T20:41:20.197Z,5.28
2023-03-19T20:43:47.553Z,5.30
2023-03-19T20:46:15.270Z,4.45
2023-03-19T20:48:41.780Z,3.90
2023-03-19T20:51:17.434Z,3.50
2023-03-19T20:53:44.368Z,3.05
2023-03-19T20:56:16.022Z,3.03
2023-03-19T20:58:42.540Z,2.83
2023-03-19T21:01:10.694Z,2.97
2023-03-19T21:03:38.112Z,3.20
2023-03-19T21:06:11.450Z,3.28
2023-03-19T21:08:44.448Z,3.53
2023-03-19T21:11:39.268Z,6.95
2023-03-19T21:14:06.403Z,8.40
2023-03-19T21:16:34.015Z,8.27
2023-03-19T21:19:00.525Z,9.20
2023-03-19T21:21:33.383Z,7.50
2023-03-19T21:24:11.377Z,4.82
2023-03-19T21:26:40.326Z,4.80
2023-03-19T21:29:13.170Z,3.95
2023-03-19T21:31:39.761Z,4.17
2023-03-19T21:34:06.350Z,4.28
2023-03-19T21:36:33.400Z,4.57
2023-03-19T21:38:59.831Z,5.68
2023-03-19T21:41:30.378Z,6.10
2023-03-19T21:43:59.434Z,5.30
2023-03-19T21:46:28.930Z,4.40
2023-03-19T21:48:57.045Z,4.45
2023-03-19T21:51:25.188Z,4.65
2023-03-19T21:53:52.230Z,4.00
2023-03-19T21:56:25.596Z,3.85
2023-03-19T21:58:53.086Z,3.53
2023-03-19T22:01:23.728Z,3.65
2023-03-19T22:03:52.019Z,3.40
2023-03-19T22:06:19.858Z,4.18
2023-03-19T22:08:49.051Z,4.00
2023-03-19T22:11:19.750Z,4.20
2023-03-19T22:13:47.328Z,4.65
2023-03-19T22:16:20.985Z,4.28
2023-03-19T22:21:19.652Z,3.10
2023-03-19T22:23:47.166Z,3.13
2023-03-19T22:26:31.846Z,2.90
2023-03-19T22:29:01.086Z,2.85
2023-03-19T22:31:28.514Z,2.72
2023-03-19T22:33:55.530Z,2.53
2023-03-19T22:36:23.462Z,2.13
2023-03-19T22:38:50.664Z,2.50
2023-03-19T22:41:29.365Z,2.55
2023-03-19T22:43:58.494Z,2.25
2023-03-19T22:46:25.617Z,2.33
2023-03-19T22:48:53.088Z,2.20
2023-03-19T22:51:23.875Z,2.30
2023-03-19T22:53:51.760Z,2.30
2023-03-19T22:56:19.662Z,2.38
2023-03-19T22:58:47.002Z,2.60
2023-03-19T23:01:23.139Z,2.85
2023-03-19T23:03:50.580Z,2.15
2023-03-19T23:06:29.742Z,2.58
2023-03-19T23:08:57.416Z,2.13
2023-03-19T23:11:24.446Z,2.38
2023-03-19T23:13:51.520Z,2.33
2023-03-19T23:16:24.141Z,2.35
2023-03-19T23:18:51.564Z,2.10
2023-03-19T23:21:27.010Z,2.50
2023-03-19T23:23:53.603Z,2.10
2023-03-19T23:26:27.211Z,2.15
2023-03-19T23:31:21.128Z,2.38
2023-03-19T23:33:51.316Z,2.10
2023-03-19T23:36:21.019Z,2.45
2023-03-19T23:38:47.680Z,2.42
2023-03-19T23:41:25.012Z,2.38
2023-03-19T23:43:52.897Z,2.22
2023-03-19T23:46:20.819Z,2.72
2023-03-19T23:48:47.499Z,2.17
2023-03-19T23:51:15.804Z,2.70
2023-03-19T23:53:43.649Z,2.80
2023-03-19T23:56:26.115Z,2.60
